Time;durP1;ratioP1;P1;durP2;ratioP2;P2;SDS_P1;SDS_P2;PMS_P1;PMS_P2;Temp;Humidity;BMP_temperature;BMP_pressure;BME280_temperature;BME280_humidity;BME280_pressure;Samples;Min_cycle;Max_cycle;Signal;HPM_P1;HPM_P2
2021/08/04 00:00:25;;;;;;;2.60;2.40;;;16.30;89.30;;;;;;4930356;29;20575;-49
2021/08/04 00:02:51;;;;;;;2.70;2.33;;;16.30;89.30;;;;;;4930862;29;20515;-49
2021/08/04 00:05:19;;;;;;;2.60;2.40;;;16.40;89.30;;;;;;4930349;29;20456;-49
2021/08/04 00:07:46;;;;;;;3.80;2.70;;;16.40;89.20;;;;;;4931383;29;20455;-49
2021/08/04 00:10:13;;;;;;;3.10;2.80;;;16.40;89.20;;;;;;4932559;29;20464;-49
2021/08/04 00:12:40;;;;;;;2.97;2.50;;;16.30;89.30;;;;;;4931738;29;20460;-49
2021/08/04 00:15:09;;;;;;;4.80;2.67;;;16.30;89.40;;;;;;4931813;29;20546;-49
2021/08/04 00:17:36;;;;;;;3.40;3.10;;;16.30;89.40;;;;;;4928909;29;20474;-49
2021/08/04 00:20:04;;;;;;;6.33;2.77;;;16.20;89.40;;;;;;4934462;29;20464;-49
2021/08/04 00:22:32;;;;;;;6.13;3.10;;;16.20;89.40;;;;;;4934461;29;20476;-49
2021/08/04 00:24:59;;;;;;;4.97;2.73;;;16.20;89.50;;;;;;4931807;29;20452;-49
2021/08/04 00:27:27;;;;;;;4.30;2.90;;;16.20;89.50;;;;;;4911317;29;20863;-49
2021/08/04 00:29:55;;;;;;;6.80;3.50;;;16.20;89.50;;;;;;4927201;29;20470;-49
2021/08/04 00:32:23;;;;;;;3.70;2.80;;;16.20;89.50;;;;;;4931199;29;20448;-49
2021/08/04 00:34:50;;;;;;;2.90;2.27;;;16.20;89.60;;;;;;4933288;29;20452;-49
2021/08/04 00:37:17;;;;;;;3.13;2.57;;;16.20;89.70;;;;;;4932897;29;20448;-49
2021/08/04 00:39:47;;;;;;;2.63;2.37;;;16.20;89.50;;;;;;4930431;29;20466;-49
2021/08/04 00:42:18;;;;;;;2.93;2.47;;;16.20;89.50;;;;;;4930992;29;20452;-49
2021/08/04 00:44:46;;;;;;;3.50;2.50;;;16.20;89.60;;;;;;4924886;29;20467;-49
2021/08/04 00:47:14;;;;;;;5.00;2.33;;;16.20;89.70;;;;;;4928217;29;20460;-49
2021/08/04 00:49:40;;;;;;;5.40;2.80;;;16.20;89.70;;;;;;4930113;29;20551;-49
2021/08/04 00:52:08;;;;;;;3.57;3.27;;;16.20;89.80;;;;;;4928942;29;20567;-49
2021/08/04 00:54:35;;;;;;;2.40;2.20;;;16.20;89.80;;;;;;4915524;29;20452;-49
2021/08/04 00:57:03;;;;;;;9.50;2.97;;;16.20;89.80;;;;;;4929795;29;21001;-49
2021/08/04 00:59:30;;;;;;;6.50;3.30;;;16.20;89.80;;;;;;4926658;29;20910;-49
2021/08/04 01:02:12;;;;;;;3.40;3.10;;;16.20;89.80;;;;;;4928376;29;20480;-49
2021/08/04 01:04:46;;;;;;;3.37;3.00;;;16.20;89.80;;;;;;4927831;29;20886;-49
2021/08/04 01:07:24;;;;;;;4.40;2.80;;;16.20;89.80;;;;;;4925588;29;20958;-49
2021/08/04 01:10:09;;;;;;;2.50;2.30;;;16.20;89.80;;;;;;4928586;29;20459;-49
2021/08/04 01:12:56;;;;;;;4.20;2.57;;;16.20;89.80;;;;;;4925387;29;20472;-49
2021/08/04 01:15:24;;;;;;;3.43;2.70;;;16.30;89.80;;;;;;4925295;29;20929;-49
2021/08/04 01:17:53;;;;;;;3.70;2.90;;;16.30;89.80;;;;;;4926786;29;20459;-49
2021/08/04 01:20:25;;;;;;;5.83;3.00;;;16.30;89.80;;;;;;4926797;29;20958;-49
2021/08/04 01:23:22;;;;;;;4.30;2.97;;;16.30;89.80;;;;;;4930743;29;20456;-49
2021/08/04 01:25:51;;;;;;;4.03;2.80;;;16.30;89.80;;;;;;4928475;29;20462;-49
2021/08/04 01:28:24;;;;;;;3.27;2.97;;;16.20;89.80;;;;;;4912265;29;20582;-49
2021/08/04 01:31:00;;;;;;;6.13;3.43;;;16.20;89.80;;;;;;4909180;29;20467;-49
2021/08/04 01:33:29;;;;;;;3.50;3.20;;;16.20;89.80;;;;;;4924817;29;20909;-49
2021/08/04 01:35:56;;;;;;;4.87;3.30;;;16.20;89.80;;;;;;4927336;29;20496;-49
2021/08/04 01:38:24;;;;;;;3.97;3.57;;;16.20;89.80;;;;;;4903550;29;20844;-49
2021/08/04 01:40:53;;;;;;;4.13;3.40;;;16.20;89.80;;;;;;4926107;29;20475;-49
2021/08/04 01:43:22;;;;;;;5.30;3.40;;;16.20;89.80;;;;;;4929326;29;20479;-49
2021/08/04 01:45:52;;;;;;;5.17;3.43;;;16.20;89.80;;;;;;4926720;29;20452;-49
2021/08/04 01:48:20;;;;;;;5.23;3.50;;;16.20;89.80;;;;;;4924514;29;20459;-49
2021/08/04 01:50:48;;;;;;;3.70;3.40;;;16.20;89.80;;;;;;4930340;29;20457;-49
2021/08/04 01:53:15;;;;;;;3.67;3.23;;;16.20;89.80;;;;;;4927858;29;20463;-49
2021/08/04 01:55:43;;;;;;;5.23;3.60;;;16.20;89.80;;;;;;4927439;29;20559;-49
2021/08/04 01:58:10;;;;;;;6.20;3.30;;;16.20;89.80;;;;;;4910958;29;20471;-49
2021/08/04 02:00:37;;;;;;;4.43;4.03;;;16.20;89.80;;;;;;4924721;29;20484;-49
2021/08/04 02:03:04;;;;;;;3.67;3.37;;;16.20;89.80;;;;;;4920012;29;20963;-49
2021/08/04 02:05:31;;;;;;;5.90;3.70;;;16.20;89.80;;;;;;4928192;29;20460;-49
2021/08/04 02:08:06;;;;;;;3.50;3.20;;;16.20;89.80;;;;;;4928645;29;20455;-49
2021/08/04 02:10:50;;;;;;;3.93;3.43;;;16.20;89.80;;;;;;4930973;29;20464;-49
2021/08/04 02:13:46;;;;;;;3.43;3.13;;;16.20;89.80;;;;;;4926948;29;20981;-49
2021/08/04 02:16:56;;;;;;;2.83;2.63;;;16.20;89.80;;;;;;4916024;29;20578;-50
2021/08/04 02:19:47;;;;;;;3.23;2.93;;;16.20;89.80;;;;;;4902962;29;20465;-49
2021/08/04 02:22:57;;;;;;;3.63;3.10;;;16.20;89.80;;;;;;4928951;29;20482;-49
2021/08/04 02:25:44;;;;;;;4.17;3.13;;;16.20;89.80;;;;;;4909923;29;20813;-49
2021/08/04 02:28:18;;;;;;;3.53;3.23;;;16.10;89.80;;;;;;4933341;29;20466;-49
2021/08/04 02:30:46;;;;;;;3.87;3.20;;;16.10;89.80;;;;;;4930760;29;20456;-49
2021/08/04 02:33:13;;;;;;;3.30;3.00;;;16.10;89.80;;;;;;4918825;29;21084;-49
2021/08/04 02:35:40;;;;;;;3.87;3.57;;;16.10;89.80;;;;;;4929576;29;21029;-49
2021/08/04 02:38:06;;;;;;;3.30;3.00;;;16.10;89.80;;;;;;4912925;29;21130;-49
2021/08/04 02:40:33;;;;;;;4.27;3.73;;;16.10;89.80;;;;;;4907742;29;20456;-49
2021/08/04 02:43:00;;;;;;;3.90;3.03;;;16.10;89.80;;;;;;4931255;29;20562;-49
2021/08/04 02:45:27;;;;;;;3.57;3.27;;;16.20;89.80;;;;;;4933164;29;20452;-49
2021/08/04 02:47:55;;;;;;;3.53;3.23;;;16.20;89.80;;;;;;4899648;29;20470;-49
2021/08/04 02:50:23;;;;;;;3.63;3.17;;;16.20;89.80;;;;;;4932636;29;20478;-49
2021/08/04 02:52:50;;;;;;;3.70;3.40;;;16.20;89.80;;;;;;4919622;29;20455;-49
2021/08/04 02:55:17;;;;;;;11.30;3.80;;;16.10;89.80;;;;;;4929194;29;21017;-49
2021/08/04 02:57:44;;;;;;;4.10;3.50;;;16.10;89.80;;;;;;4916492;29;21017;-49
2021/08/04 03:00:12;;;;;;;4.47;3.60;;;16.10;89.80;;;;;;4929531;29;20491;-49
2021/08/04 03:02:38;;;;;;;4.60;3.70;;;16.10;89.80;;;;;;4929763;29;20965;-49
2021/08/04 03:05:07;;;;;;;4.30;3.10;;;16.10;89.80;;;;;;4912614;29;22096;-49
2021/08/04 03:07:34;;;;;;;4.03;3.73;;;16.10;89.80;;;;;;4927613;29;20475;-49
2021/08/04 03:10:00;;;;;;;4.93;3.70;;;16.10;89.80;;;;;;4931279;29;20552;-49
2021/08/04 03:12:27;;;;;;;3.70;3.40;;;16.10;89.80;;;;;;4930643;29;20543;-49
2021/08/04 03:14:54;;;;;;;5.10;3.63;;;16.00;89.80;;;;;;4914107;29;20467;-49
2021/08/04 03:17:21;;;;;;;4.27;3.30;;;16.00;89.80;;;;;;4928593;29;20496;-49
2021/08/04 03:19:47;;;;;;;3.93;3.63;;;16.00;89.80;;;;;;4929363;29;20995;-49
2021/08/04 03:22:14;;;;;;;4.07;3.70;;;16.00;89.80;;;;;;4930847;29;20891;-49
2021/08/04 03:24:41;;;;;;;8.17;4.10;;;16.00;89.80;;;;;;4929398;29;20546;-49
2021/08/04 03:27:08;;;;;;;4.87;4.37;;;16.00;89.80;;;;;;4931400;29;20456;-49
2021/08/04 03:29:35;;;;;;;4.77;4.30;;;16.00;89.80;;;;;;4930774;29;21932;-49
2021/08/04 03:32:04;;;;;;;5.27;4.77;;;16.00;89.80;;;;;;4927839;29;20970;-49
2021/08/04 03:34:31;;;;;;;6.57;5.70;;;16.00;89.80;;;;;;4913007;29;20482;-49
2021/08/04 03:36:57;;;;;;;6.83;6.13;;;16.00;89.80;;;;;;4929717;29;21009;-49
2021/08/04 03:39:24;;;;;;;7.20;6.50;;;16.10;89.80;;;;;;4931438;29;21521;-49
2021/08/04 03:41:51;;;;;;;7.53;6.73;;;16.10;89.80;;;;;;4929110;29;20463;-49
2021/08/04 03:44:18;;;;;;;9.67;7.17;;;16.10;89.80;;;;;;4933004;29;20475;-49
2021/08/04 03:46:46;;;;;;;12.00;7.50;;;16.10;89.80;;;;;;4932486;29;20834;-49
2021/08/04 03:49:15;;;;;;;7.50;6.70;;;16.10;89.80;;;;;;4933484;29;21055;-49
2021/08/04 03:51:42;;;;;;;8.17;7.37;;;16.10;89.80;;;;;;4932637;29;20462;-49
2021/08/04 03:54:09;;;;;;;7.73;6.77;;;16.10;89.80;;;;;;4932881;29;20821;-49
2021/08/04 03:56:36;;;;;;;9.37;7.13;;;16.10;89.80;;;;;;4930723;29;20494;-49
2021/08/04 03:59:03;;;;;;;10.70;7.57;;;16.10;89.80;;;;;;4932139;29;20827;-49
2021/08/04 04:01:29;;;;;;;7.77;6.80;;;16.10;89.80;;;;;;4932094;29;20490;-49
2021/08/04 04:03:56;;;;;;;11.73;8.10;;;16.10;89.80;;;;;;4932488;29;20563;-49
2021/08/04 04:06:23;;;;;;;8.30;7.50;;;16.10;89.80;;;;;;4931437;29;20456;-49
2021/08/04 04:08:50;;;;;;;9.23;7.30;;;16.20;89.80;;;;;;4933350;29;20460;-49
2021/08/04 04:11:19;;;;;;;11.70;8.50;;;16.20;89.80;;;;;;4916291;29;20460;-49
2021/08/04 04:13:46;;;;;;;9.10;7.63;;;16.20;89.80;;;;;;4930267;29;20464;-49
2021/08/04 04:16:12;;;;;;;9.10;8.13;;;16.20;89.80;;;;;;4927615;29;20510;-49
2021/08/04 04:18:39;;;;;;;8.47;7.47;;;16.20;89.80;;;;;;4936042;29;20960;-49
2021/08/04 04:21:06;;;;;;;10.77;7.60;;;16.20;89.80;;;;;;4929249;29;20459;-49
2021/08/04 04:23:35;;;;;;;13.13;7.83;;;16.20;89.80;;;;;;4931687;29;20825;-49
2021/08/04 04:26:03;;;;;;;9.60;8.17;;;16.20;89.80;;;;;;4917769;29;20575;-49
2021/08/04 04:28:30;;;;;;;8.97;7.07;;;16.20;89.80;;;;;;4931401;29;20455;-49
2021/08/04 04:30:57;;;;;;;8.53;6.47;;;16.20;89.80;;;;;;4914677;29;20927;-49
2021/08/04 04:33:24;;;;;;;8.10;7.30;;;16.20;89.80;;;;;;4915428;29;20448;-49
2021/08/04 04:35:51;;;;;;;7.70;6.47;;;16.20;89.80;;;;;;4930154;29;20471;-49
2021/08/04 04:38:17;;;;;;;8.53;6.83;;;16.20;89.80;;;;;;4929996;29;20984;-49
2021/08/04 04:40:45;;;;;;;8.10;6.90;;;16.20;89.80;;;;;;4929976;29;20461;-49
2021/08/04 04:43:11;;;;;;;7.63;6.87;;;16.20;89.80;;;;;;4929004;29;20460;-49
2021/08/04 04:45:38;;;;;;;9.37;6.93;;;16.30;89.80;;;;;;4915156;29;20502;-49
2021/08/04 04:48:05;;;;;;;9.20;7.50;;;16.30;89.80;;;;;;4933082;29;20440;-49
2021/08/04 04:50:34;;;;;;;8.80;7.40;;;16.30;89.80;;;;;;4930185;29;20839;-49
2021/08/04 04:53:01;;;;;;;10.70;6.70;;;16.30;89.80;;;;;;4930280;29;20465;-49
2021/08/04 04:55:28;;;;;;;8.53;7.67;;;16.30;89.80;;;;;;4930382;29;20456;-49
2021/08/04 04:57:55;;;;;;;9.57;7.77;;;16.40;89.80;;;;;;4926797;29;20484;-49
2021/08/04 05:00:21;;;;;;;9.30;7.83;;;16.40;89.80;;;;;;4915673;29;20476;-49
2021/08/04 05:02:48;;;;;;;11.60;7.67;;;16.40;89.80;;;;;;4924466;29;20456;-49
2021/08/04 05:05:16;;;;;;;8.07;7.27;;;16.40;89.80;;;;;;4931228;29;20479;-49
2021/08/04 05:07:44;;;;;;;10.23;6.93;;;16.40;89.80;;;;;;4932588;29;20452;-49
2021/08/04 05:10:11;;;;;;;8.93;6.57;;;16.40;89.80;;;;;;4929918;29;20460;-49
2021/08/04 05:12:37;;;;;;;7.90;6.93;;;16.50;89.80;;;;;;4928545;29;20559;-49
2021/08/04 05:15:06;;;;;;;9.87;7.43;;;16.50;89.80;;;;;;4930720;29;20468;-49
2021/08/04 05:17:32;;;;;;;9.10;6.93;;;16.50;89.80;;;;;;4932741;29;20880;-49
2021/08/04 05:19:59;;;;;;;7.50;6.17;;;16.50;89.80;;;;;;4930809;29;20459;-49
2021/08/04 05:22:26;;;;;;;9.03;6.70;;;16.60;89.80;;;;;;4925829;29;20467;-49
2021/08/04 05:24:53;;;;;;;7.80;7.00;;;16.60;89.80;;;;;;4925094;29;20884;-49
2021/08/04 05:27:19;;;;;;;8.23;6.90;;;16.60;89.80;;;;;;4929159;29;20464;-49
2021/08/04 05:29:46;;;;;;;7.60;5.67;;;16.60;89.80;;;;;;4914191;29;21053;-49
2021/08/04 05:32:13;;;;;;;8.23;6.60;;;16.60;89.80;;;;;;4928702;29;20472;-49
2021/08/04 05:34:40;;;;;;;7.70;6.37;;;16.60;89.80;;;;;;4926995;29;20460;-49
2021/08/04 05:37:09;;;;;;;7.00;6.30;;;16.70;89.80;;;;;;4925626;29;20590;-49
2021/08/04 05:39:36;;;;;;;9.30;7.17;;;16.70;89.80;;;;;;4930190;29;20448;-49
2021/08/04 05:42:04;;;;;;;7.57;6.13;;;16.70;89.80;;;;;;4929386;29;20854;-49
2021/08/04 05:44:30;;;;;;;8.27;6.53;;;16.80;89.80;;;;;;4929269;29;20457;-49
2021/08/04 05:46:57;;;;;;;9.47;6.27;;;16.80;89.80;;;;;;4929618;29;20468;-49
2021/08/04 05:49:24;;;;;;;5.80;5.23;;;16.80;89.80;;;;;;4929908;29;20459;-49
2021/08/04 05:51:51;;;;;;;6.80;6.00;;;16.90;89.80;;;;;;4926171;29;20508;-49
2021/08/04 05:54:19;;;;;;;7.20;5.87;;;16.90;89.70;;;;;;4925058;29;20479;-49
2021/08/04 05:56:48;;;;;;;8.43;6.60;;;16.90;89.70;;;;;;4928961;29;21021;-49
2021/08/04 05:59:15;;;;;;;6.80;5.67;;;16.90;89.70;;;;;;4931281;29;21024;-49
2021/08/04 06:01:42;;;;;;;10.17;6.13;;;16.90;89.80;;;;;;4930242;29;20488;-49
2021/08/04 06:04:09;;;;;;;6.37;5.83;;;17.00;89.80;;;;;;4932107;29;20467;-49
2021/08/04 06:06:36;;;;;;;10.07;7.10;;;17.00;89.80;;;;;;4917140;29;20546;-49
2021/08/04 06:09:03;;;;;;;11.63;6.33;;;17.00;89.80;;;;;;4930713;29;20984;-49
2021/08/04 06:11:29;;;;;;;8.43;6.60;;;17.00;89.80;;;;;;4933224;29;20543;-49
2021/08/04 06:13:56;;;;;;;8.57;7.10;;;17.10;89.70;;;;;;4934332;29;20482;-49
2021/08/04 06:16:23;;;;;;;7.70;6.53;;;17.10;89.70;;;;;;4915739;29;20491;-49
2021/08/04 06:18:50;;;;;;;8.60;7.00;;;17.10;89.50;;;;;;4913110;29;20472;-49
2021/08/04 06:21:17;;;;;;;7.57;6.70;;;17.20;89.50;;;;;;4932233;29;20488;-49
2021/08/04 06:23:47;;;;;;;7.67;6.97;;;17.20;89.20;;;;;;4922185;29;20466;-49
2021/08/04 06:26:15;;;;;;;9.23;7.47;;;17.20;88.80;;;;;;4928751;29;20491;-49
2021/08/04 06:28:43;;;;;;;7.70;6.43;;;17.20;88.70;;;;;;4930143;29;20522;-49
2021/08/04 06:31:10;;;;;;;8.70;7.47;;;17.20;88.90;;;;;;4930539;29;20463;-49
2021/08/04 06:33:38;;;;;;;11.03;7.37;;;17.20;89.00;;;;;;4915297;29;20456;-49
2021/08/04 06:36:05;;;;;;;7.60;6.87;;;17.20;89.20;;;;;;4933669;29;20567;-49
2021/08/04 06:38:32;;;;;;;9.30;6.77;;;17.30;89.20;;;;;;4933484;29;20578;-49
2021/08/04 06:40:59;;;;;;;9.90;6.87;;;17.30;89.10;;;;;;4912340;29;20510;-49
2021/08/04 06:43:25;;;;;;;9.53;7.67;;;17.40;89.00;;;;;;4933283;29;20460;-49
2021/08/04 06:45:52;;;;;;;10.33;9.23;;;17.50;88.80;;;;;;4913390;29;20503;-49
2021/08/04 06:48:19;;;;;;;10.00;7.70;;;17.60;88.70;;;;;;4919996;29;20871;-49
2021/08/04 06:50:46;;;;;;;8.20;7.10;;;17.60;88.70;;;;;;4933725;29;20493;-49
2021/08/04 06:53:13;;;;;;;8.33;6.80;;;17.70;88.80;;;;;;4934602;29;20448;-49
2021/08/04 06:55:40;;;;;;;8.63;6.83;;;17.80;88.10;;;;;;4932724;29;20460;-49
2021/08/04 06:58:07;;;;;;;7.90;7.17;;;17.90;88.00;;;;;;4930268;29;20587;-49
2021/08/04 07:00:33;;;;;;;8.27;7.40;;;17.90;87.60;;;;;;4929553;29;20543;-49
2021/08/04 07:03:00;;;;;;;8.87;7.97;;;18.00;87.20;;;;;;4932371;29;20452;-49
2021/08/04 07:05:27;;;;;;;8.13;7.33;;;18.00;86.80;;;;;;4917144;29;20463;-49
2021/08/04 07:07:54;;;;;;;7.77;7.07;;;18.10;86.50;;;;;;4927659;29;20468;-49
2021/08/04 07:10:21;;;;;;;8.63;7.53;;;18.00;86.60;;;;;;4929526;29;20476;-49
2021/08/04 07:12:48;;;;;;;10.03;8.97;;;18.10;86.40;;;;;;4926804;29;20482;-49
2021/08/04 07:15:15;;;;;;;10.00;9.00;;;18.00;86.40;;;;;;4925344;29;20962;-49
2021/08/04 07:17:46;;;;;;;10.00;9.00;;;18.10;86.10;;;;;;4928511;29;20491;-49
2021/08/04 07:20:18;;;;;;;10.43;9.23;;;18.10;86.10;;;;;;4929950;29;20456;-49
2021/08/04 07:22:46;;;;;;;10.47;9.37;;;18.10;86.20;;;;;;4915245;29;20474;-49
2021/08/04 07:25:14;;;;;;;12.17;10.93;;;18.20;86.40;;;;;;4929793;29;20452;-49
2021/08/04 07:27:41;;;;;;;14.73;12.73;;;18.30;86.50;;;;;;4926275;29;20860;-49
2021/08/04 07:30:10;;;;;;;9.77;7.20;;;18.40;86.10;;;;;;4928509;29;20563;-49
2021/08/04 07:32:38;;;;;;;10.00;7.90;;;18.40;85.30;;;;;;4933730;29;20962;-50
2021/08/04 07:35:06;;;;;;;11.50;8.00;;;18.50;84.80;;;;;;4932982;29;20459;-50
2021/08/04 07:37:34;;;;;;;15.53;13.97;;;18.60;84.40;;;;;;4916914;29;20495;-49
2021/08/04 07:40:03;;;;;;;11.60;9.87;;;18.70;84.00;;;;;;4932173;29;21041;-49
2021/08/04 07:42:30;;;;;;;9.50;8.20;;;18.80;83.10;;;;;;4930469;29;20456;-50
2021/08/04 07:44:56;;;;;;;9.67;8.00;;;18.90;83.10;;;;;;4927555;29;20460;-49
2021/08/04 07:47:23;;;;;;;9.17;8.20;;;19.00;82.70;;;;;;4932226;29;20471;-50
2021/08/04 07:49:50;;;;;;;8.10;7.30;;;19.10;82.20;;;;;;4928188;29;20463;-49
2021/08/04 07:52:17;;;;;;;7.87;7.00;;;19.20;81.20;;;;;;4929740;29;20474;-50
2021/08/04 07:54:43;;;;;;;8.70;6.20;;;19.10;81.20;;;;;;4927996;29;20967;-49
2021/08/04 07:57:10;;;;;;;8.23;7.03;;;19.10;81.30;;;;;;4929955;29;20492;-50
2021/08/04 07:59:37;;;;;;;10.80;9.70;;;19.10;81.40;;;;;;4929365;29;20463;-50
2021/08/04 08:02:04;;;;;;;10.63;7.77;;;19.20;81.00;;;;;;4928481;29;20494;-50
2021/08/04 08:04:32;;;;;;;9.67;7.30;;;19.20;81.10;;;;;;4926807;29;20475;-49
2021/08/04 08:07:02;;;;;;;11.07;9.50;;;19.30;80.80;;;;;;4928540;29;20815;-49
2021/08/04 08:09:32;;;;;;;9.43;7.90;;;19.30;80.90;;;;;;4930267;29;20502;-50
2021/08/04 08:12:00;;;;;;;8.30;6.70;;;19.40;80.40;;;;;;4932645;29;20549;-50
2021/08/04 08:14:28;;;;;;;7.07;6.37;;;19.40;79.60;;;;;;4916853;29;20449;-49
2021/08/04 08:16:56;;;;;;;8.10;6.77;;;19.40;79.00;;;;;;4916237;29;20468;-49
2021/08/04 08:19:24;;;;;;;7.50;6.77;;;19.30;79.40;;;;;;4931564;29;20451;-49
2021/08/04 08:21:51;;;;;;;9.60;6.73;;;19.30;79.40;;;;;;4930294;29;20475;-49
2021/08/04 08:24:20;;;;;;;8.10;6.93;;;19.20;79.80;;;;;;4926639;29;20506;-49
2021/08/04 08:26:48;;;;;;;9.87;8.00;;;19.20;80.20;;;;;;4930309;29;20587;-49
2021/08/04 08:29:16;;;;;;;7.93;7.13;;;19.20;80.30;;;;;;4930281;29;20462;-47
2021/08/04 08:31:43;;;;;;;8.77;7.83;;;19.30;80.70;;;;;;4911383;29;20479;-49
2021/08/04 08:34:11;;;;;;;9.87;7.73;;;19.30;80.70;;;;;;4931680;29;20456;-49
2021/08/04 08:36:39;;;;;;;8.53;7.17;;;19.40;80.40;;;;;;4927877;29;20555;-50
2021/08/04 08:39:08;;;;;;;8.63;7.80;;;19.40;79.90;;;;;;4932799;29;20495;-49
2021/08/04 08:41:35;;;;;;;11.00;7.93;;;19.60;78.90;;;;;;4913765;29;20891;-50
2021/08/04 08:44:03;;;;;;;11.20;7.90;;;19.60;78.40;;;;;;4931313;29;20458;-49
2021/08/04 08:46:33;;;;;;;9.97;7.00;;;19.60;78.20;;;;;;4929238;29;20571;-50
2021/08/04 08:49:01;;;;;;;9.03;8.23;;;19.70;78.20;;;;;;4927084;29;20543;-50
2021/08/04 08:51:28;;;;;;;9.50;8.00;;;19.70;77.90;;;;;;4931829;29;20543;-50
2021/08/04 08:53:55;;;;;;;9.03;8.03;;;19.70;78.20;;;;;;4913158;29;20471;-50
2021/08/04 08:56:22;;;;;;;8.37;7.57;;;19.80;78.70;;;;;;4931528;29;20851;-50
2021/08/04 08:58:54;;;;;;;8.87;6.93;;;19.90;78.40;;;;;;4927103;29;20862;-50
2021/08/04 09:01:35;;;;;;;9.80;7.63;;;20.00;77.60;;;;;;4923022;29;20499;-50
2021/08/04 09:04:06;;;;;;;8.80;7.53;;;20.10;76.80;;;;;;4925251;29;20998;-50
2021/08/04 09:06:46;;;;;;;12.97;7.80;;;20.10;76.80;;;;;;4924037;29;20455;-50
2021/08/04 09:09:26;;;;;;;7.77;6.97;;;20.10;75.80;;;;;;4932836;29;20456;-50
2021/08/04 09:11:54;;;;;;;10.87;7.50;;;20.10;75.80;;;;;;4929666;29;20476;-50
2021/08/04 09:14:25;;;;;;;7.37;6.70;;;20.10;75.80;;;;;;4928667;29;20476;-50
2021/08/04 09:17:09;;;;;;;6.90;6.20;;;20.20;75.60;;;;;;4930720;29;20947;-50
2021/08/04 09:19:39;;;;;;;7.07;6.40;;;20.30;75.70;;;;;;4930552;29;20466;-49
2021/08/04 09:22:12;;;;;;;7.80;7.00;;;20.30;75.50;;;;;;4928049;29;20810;-50
2021/08/04 09:24:59;;;;;;;7.30;6.60;;;20.40;75.40;;;;;;4929871;29;20495;-50
2021/08/04 09:27:43;;;;;;;6.80;6.17;;;20.50;75.10;;;;;;4927601;29;21032;-50
2021/08/04 09:30:13;;;;;;;7.60;6.80;;;20.60;74.20;;;;;;4924577;29;20466;-50
2021/08/04 09:32:40;;;;;;;6.90;6.20;;;20.70;73.50;;;;;;4930166;29;20466;-50
2021/08/04 09:35:22;;;;;;;7.53;6.60;;;20.90;73.00;;;;;;4925718;29;20455;-50
2021/08/04 09:37:49;;;;;;;8.23;7.37;;;21.20;72.40;;;;;;4920430;29;20484;-48
2021/08/04 09:40:21;;;;;;;7.63;5.80;;;21.50;71.80;;;;;;4911438;29;20470;-49
2021/08/04 09:42:53;;;;;;;6.83;6.23;;;21.70;70.70;;;;;;4928745;29;20539;-50
2021/08/04 09:45:37;;;;;;;6.40;5.80;;;21.80;70.10;;;;;;4911741;29;22357;-50
2021/08/04 09:48:09;;;;;;;5.43;4.93;;;21.90;69.40;;;;;;4910513;29;20459;-50
2021/08/04 09:50:45;;;;;;;5.60;5.10;;;21.90;69.00;;;;;;4914840;29;20456;-49
2021/08/04 09:53:22;;;;;;;6.07;5.57;;;21.90;68.90;;;;;;4928496;29;20979;-49
2021/08/04 09:56:13;;;;;;;6.53;5.80;;;21.80;69.50;;;;;;4929167;29;20538;-49
2021/08/04 09:58:47;;;;;;;6.23;5.70;;;21.70;69.70;;;;;;4930044;29;20527;-49
2021/08/04 10:01:17;;;;;;;10.27;6.47;;;21.70;69.70;;;;;;4930768;29;20992;-49
2021/08/04 10:04:02;;;;;;;9.20;5.80;;;21.60;69.40;;;;;;4924739;29;20493;-49
2021/08/04 10:06:34;;;;;;;6.67;5.50;;;21.60;69.70;;;;;;4925539;29;20471;-49
2021/08/04 10:09:04;;;;;;;11.70;7.77;;;21.50;69.50;;;;;;4912821;29;20897;-49
2021/08/04 10:11:31;;;;;;;7.80;7.10;;;21.50;69.70;;;;;;4929160;29;20472;-49
2021/08/04 10:13:59;;;;;;;6.73;5.93;;;21.40;70.10;;;;;;4928338;29;21003;-49
2021/08/04 10:16:32;;;;;;;7.20;6.10;;;21.40;70.60;;;;;;4915497;29;20542;-49
2021/08/04 10:19:02;;;;;;;7.43;5.93;;;21.40;71.30;;;;;;4926115;29;20488;-49
2021/08/04 10:21:29;;;;;;;6.33;5.73;;;21.40;71.90;;;;;;4930429;29;20452;-47
2021/08/04 10:23:59;;;;;;;5.30;4.90;;;21.40;72.10;;;;;;4929392;29;20920;-48
2021/08/04 10:26:26;;;;;;;5.87;5.37;;;21.40;72.40;;;;;;4929214;29;20542;-50
2021/08/04 10:28:57;;;;;;;8.17;6.27;;;21.30;72.50;;;;;;4914502;29;20519;-49
2021/08/04 10:31:25;;;;;;;8.03;6.70;;;21.30;72.50;;;;;;4929518;29;20479;-49
2021/08/04 10:33:54;;;;;;;6.70;6.00;;;21.30;72.40;;;;;;4916702;29;20494;-49
2021/08/04 10:36:22;;;;;;;6.70;6.10;;;21.20;72.60;;;;;;4917406;29;20504;-49
2021/08/04 10:38:54;;;;;;;6.37;5.77;;;21.10;73.10;;;;;;4914948;29;20583;-49
2021/08/04 10:41:22;;;;;;;6.17;5.50;;;21.00;73.40;;;;;;4933506;29;20475;-49
2021/08/04 10:43:55;;;;;;;7.20;6.50;;;21.00;73.60;;;;;;4931927;29;20846;-49
2021/08/04 10:46:28;;;;;;;7.50;6.70;;;21.00;73.70;;;;;;4932371;29;20455;-49
2021/08/04 10:49:04;;;;;;;7.40;5.70;;;21.00;73.00;;;;;;4932320;29;20701;-49
2021/08/04 10:52:00;;;;;;;6.43;5.83;;;20.90;72.90;;;;;;4932154;29;21024;-49
2021/08/04 10:54:30;;;;;;;7.90;5.13;;;21.00;73.30;;;;;;4933833;29;20926;-49
2021/08/04 10:56:57;;;;;;;7.00;6.33;;;21.00;72.90;;;;;;4933872;29;20961;-49
2021/08/04 10:59:31;;;;;;;5.80;5.23;;;21.00;72.80;;;;;;4932355;29;20495;-50
2021/08/04 11:02:03;;;;;;;6.10;5.50;;;21.10;72.20;;;;;;4931684;29;20463;-49
2021/08/04 11:04:33;;;;;;;5.70;4.80;;;21.00;72.10;;;;;;4931087;29;20463;-50
2021/08/04 11:07:09;;;;;;;6.40;5.80;;;21.00;71.50;;;;;;4929330;29;20961;-50
2021/08/04 11:09:54;;;;;;;5.13;4.73;;;20.90;71.30;;;;;;4932329;29;20471;-50
2021/08/04 11:12:22;;;;;;;5.57;5.07;;;21.00;70.00;;;;;;4930793;29;20529;-49
2021/08/04 11:14:54;;;;;;;5.30;4.80;;;21.00;69.90;;;;;;4930195;29;20464;-51
2021/08/04 11:17:21;;;;;;;5.53;4.53;;;21.10;70.40;;;;;;4931909;29;20464;-49
2021/08/04 11:20:08;;;;;;;4.57;4.17;;;21.20;70.60;;;;;;4926916;29;20992;-49
2021/08/04 11:22:34;;;;;;;4.90;4.50;;;21.30;70.10;;;;;;4932593;29;20543;-49
2021/08/04 11:25:09;;;;;;;5.00;4.50;;;21.40;70.20;;;;;;4931006;29;20482;-49
2021/08/04 11:27:45;;;;;;;4.77;4.47;;;21.40;69.90;;;;;;4929572;29;20860;-49
2021/08/04 11:30:35;;;;;;;5.10;4.70;;;21.50;69.20;;;;;;4931531;29;21007;-49
2021/08/04 11:33:25;;;;;;;4.87;4.47;;;21.60;68.50;;;;;;4914278;29;20989;-48
2021/08/04 11:36:14;;;;;;;4.57;4.17;;;21.70;66.90;;;;;;4930022;29;20463;-50
2021/08/04 11:38:49;;;;;;;4.97;4.07;;;21.90;66.80;;;;;;4932855;29;20568;-50
2021/08/04 11:41:21;;;;;;;4.70;4.30;;;22.00;66.00;;;;;;4930207;29;20960;-50
2021/08/04 11:43:51;;;;;;;3.10;2.90;;;22.10;66.20;;;;;;4928463;29;20458;-50
2021/08/04 11:46:34;;;;;;;3.37;3.07;;;22.20;65.50;;;;;;4931234;29;20547;-50
2021/08/04 11:49:04;;;;;;;4.50;4.10;;;22.20;65.40;;;;;;4929950;29;20507;-50
2021/08/04 11:51:53;;;;;;;3.00;2.80;;;22.20;64.00;;;;;;4915176;29;20479;-50
2021/08/04 11:54:43;;;;;;;3.30;3.00;;;22.20;64.20;;;;;;4915274;29;20472;-50
2021/08/04 11:57:32;;;;;;;2.60;2.40;;;22.20;63.80;;;;;;4931071;29;20467;-50
2021/08/04 12:00:05;;;;;;;3.90;2.50;;;22.20;63.10;;;;;;4908726;29;20491;-50
2021/08/04 12:02:35;;;;;;;4.57;2.70;;;22.30;63.50;;;;;;4929529;29;20473;-50
2021/08/04 12:05:06;;;;;;;3.43;3.13;;;22.30;63.20;;;;;;4934009;29;20810;-50
2021/08/04 12:07:34;;;;;;;3.60;3.30;;;22.30;62.70;;;;;;4929670;29;20528;-50
2021/08/04 12:10:07;;;;;;;3.87;2.80;;;22.40;61.90;;;;;;4931812;29;20474;-50
2021/08/04 12:12:37;;;;;;;3.70;3.40;;;22.50;61.60;;;;;;4915969;29;20477;-50
2021/08/04 12:15:15;;;;;;;3.43;3.13;;;22.50;61.20;;;;;;4931163;29;20461;-50
2021/08/04 12:17:42;;;;;;;3.93;2.63;;;22.60;61.40;;;;;;4914872;29;20467;-50
2021/08/04 12:20:22;;;;;;;3.57;2.73;;;22.60;60.70;;;;;;4930160;29;20513;-50
2021/08/04 12:23:10;;;;;;;3.00;2.70;;;22.70;60.50;;;;;;4914850;29;20496;-49
2021/08/04 12:25:39;;;;;;;3.77;3.00;;;22.80;62.20;;;;;;4927235;29;20468;-50
2021/08/04 12:28:07;;;;;;;3.73;3.13;;;22.80;62.40;;;;;;4931869;29;20555;-49
2021/08/04 12:30:40;;;;;;;3.93;3.53;;;22.90;62.50;;;;;;4928403;29;20466;-49
2021/08/04 12:33:26;;;;;;;3.90;3.47;;;22.90;62.70;;;;;;4927116;29;20992;-49
2021/08/04 12:39:07;;;;;;;4.40;3.80;;;22.80;62.60;;;;;;4865579;29;20949;-49
2021/08/04 12:41:35;;;;;;;3.60;3.30;;;22.60;62.00;;;;;;4867175;29;20458;-49
2021/08/04 12:44:05;;;;;;;2.77;2.57;;;22.50;62.20;;;;;;4899249;29;20451;-49
2021/08/04 12:46:33;;;;;;;3.73;3.33;;;22.50;62.30;;;;;;4927208;29;20992;-49
2021/08/04 12:49:01;;;;;;;4.40;3.57;;;22.40;62.50;;;;;;4926013;29;20531;-49
2021/08/04 12:51:28;;;;;;;3.57;3.10;;;22.40;62.90;;;;;;4936781;29;20463;-49
2021/08/04 12:54:00;;;;;;;3.10;2.80;;;22.40;62.00;;;;;;4930328;29;20571;-49
2021/08/04 12:56:37;;;;;;;2.80;2.60;;;22.40;62.10;;;;;;4930554;29;20456;-49
2021/08/04 12:59:08;;;;;;;5.90;4.40;;;22.40;63.20;;;;;;4929788;29;20836;-49
2021/08/04 13:01:39;;;;;;;4.37;3.40;;;22.40;65.80;;;;;;4932728;29;20511;-49
2021/08/04 13:04:31;;;;;;;8.60;3.60;;;22.30;66.50;;;;;;4928485;29;20470;-49